Ship Status Report: callsign WAM8729

sailwx.info

Track history (hours):
 
Tides and Currents Weather Stations Pressure Air Temp Water Temp Dewpoint Dewpoint Depression Visibility Wind Speed Wind Dir Waves Ship Positions

Callsign WAM8729 (name unknown)

Owner: REGENTS OF THE UNIVERSITY OF CALIFORNIA, OAKLAND, CA. More information available from US FCC via Universal Licensing System and Coast Guard Vessel Documentation Center.

Last reported at 2017-Oct-19 21:00 UTC. Time now 2017-Oct-22 17:48 UTC.
Position N 34°25' W 119°50'.

Length 7 m.

Type: Diving. MMSI: 338140283.

Date/timePositionNaut miles runAvg speedWind from/ knotsBaromVisibWave heightAir tempDewpointWater temp
2017-Oct-19 21:00N 34°25' W 119°50'1 2.4
2017-Oct-19 20:31N 34°24' W 119°51'1 0.8
2017-Oct-19 19:10N 34°24' W 119°52'0 0.0
2017-Oct-19 18:59N 34°24' W 119°52'0 0.0
2017-Oct-19 18:23N 34°24' W 119°52'0 0.1
2017-Oct-19 17:00N 34°24' W 119°52'0 0.0
2017-Oct-19 16:19N 34°24' W 119°52'0 0.0
2017-Oct-19 15:55N 34°24' W 119°52'0 0.0
2017-Oct-19 15:30N 34°24' W 119°52'2 4.0
2017-Oct-19 14:59N 34°25' W 119°50'1 0.0
2017-Oct-18 22:00N 34°24' W 119°51'0 0.1
2017-Oct-18 21:30N 34°24' W 119°51'0 0.4
2017-Oct-18 20:41N 34°25' W 119°51'1 2.2
2017-Oct-18 20:22N 34°25' W 119°50'0 0.1
2017-Oct-18 19:58N 34°25' W 119°50'0 0.3
2017-Oct-18 19:30N 34°25' W 119°50'2 3.7
2017-Oct-18 18:59N 34°24' W 119°52'1 1.8
2017-Oct-18 18:29N 34°24' W 119°53'0 0.0
2017-Oct-18 17:50N 34°24' W 119°53'2 5.3
2017-Oct-18 17:30N 34°25' W 119°55'2 2.3
2017-Oct-18 16:42N 34°25' W 119°57'0 0.0
2017-Oct-18 16:30N 34°25' W 119°57'1 1.7
2017-Oct-18 15:58N 34°25' W 119°56'5 9.6
2017-Oct-18 15:25N 34°25' W 119°50'1 2.1
2017-Oct-18 15:00N 34°24' W 119°51'0 0.0
2017-Oct-16 23:49N 34°24' W 119°51'0 0.0
2017-Oct-16 23:30N 34°24' W 119°51'6 7.7
2017-Oct-16 22:43N 34°19' W 119°52'823.4
2017-Oct-16 22:24N 34°11' W 119°55'1023.3
2017-Oct-16 21:57N 34°01' W 119°58'5 0.8
2017-Oct-16 15:58N 33°56' W 119°58'1524.3
2017-Oct-16 15:22N 34°11' W 119°54'923.5
2017-Oct-16 14:58N 34°20' W 119°51'5 8.5
2017-Oct-16 14:21N 34°25' W 119°50'  
2017-Oct-13 22:23N 34°26' W 119°44'3 7.5
2017-Oct-13 22:00N 34°24' W 119°41'2 3.9
2017-Oct-13 21:22N 34°24' W 119°44'0 0.0
2017-Oct-13 20:37N 34°24' W 119°44'0 0.0
2017-Oct-13 20:28N 34°24' W 119°44'0 0.0
2017-Oct-13 19:59N 34°24' W 119°44'0 0.0
2017-Oct-13 18:37N 34°24' W 119°44'0 0.0
2017-Oct-13 18:29N 34°24' W 119°44'0 0.1
2017-Oct-13 17:52N 34°24' W 119°44'0 0.0
2017-Oct-13 17:01N 34°24' W 119°44'0 0.0
2017-Oct-13 16:58N 34°24' W 119°44'2 0.1
2017-Oct-12 19:51N 34°25' W 119°42'2 3.6
2017-Oct-12 19:12N 34°24' W 119°40'413.3
2017-Oct-12 18:53N 34°20' W 119°37'0 0.5
2017-Oct-12 18:25N 34°20' W 119°37'0 0.1
2017-Oct-12 17:56N 34°20' W 119°37'0 0.1
2017-Oct-12 17:23N 34°20' W 119°37'0 0.1
2017-Oct-12 16:55N 34°20' W 119°37'0 0.1
2017-Oct-12 16:29N 34°20' W 119°37'0 0.2
2017-Oct-12 15:39N 34°20' W 119°38'0 0.5
2017-Oct-12 15:27N 34°20' W 119°37'1116.8
2017-Oct-12 14:49N 34°26' W 119°48'3 1.0
2017-Oct-12 11:42N 34°24' W 119°51'0 0.0
2017-Oct-12 08:03N 34°24' W 119°51'0 0.0
2017-Oct-12 07:48N 34°24' W 119°51'0 0.0
2017-Oct-12 07:30N 34°24' W 119°51'0 0.0
2017-Oct-12 07:00N 34°24' W 119°51'0 0.0
2017-Oct-12 06:30N 34°24' W 119°51'0 0.0
2017-Oct-12 05:48N 34°24' W 119°51'0 0.0
2017-Oct-12 05:30N 34°24' W 119°51'0 0.0
2017-Oct-12 04:54N 34°24' W 119°51'0 0.0
2017-Oct-12 03:00N 34°24' W 119°51'0 0.0
2017-Oct-12 01:21N 34°24' W 119°51'0 0.0
2017-Oct-11 21:25N 34°24' W 119°51'0 0.7
2017-Oct-11 20:50N 34°24' W 119°51'1 2.5
2017-Oct-11 20:28N 34°24' W 119°52'0 0.3
2017-Oct-11 20:00N 34°24' W 119°52'0 0.1
2017-Oct-11 19:28N 34°24' W 119°52'0 0.3
2017-Oct-11 18:59N 34°24' W 119°52'9 8.6
2017-Oct-11 17:56N 34°24' W 119°41'817.0
2017-Oct-11 17:29N 34°18' W 119°47'757.4
2017-Oct-11 17:22N 34°24' W 119°52'0 0.1
2017-Oct-11 17:00N 34°24' W 119°52'758.3
2017-Oct-11 16:52N 34°18' W 119°47'7 0.4
2017-Oct-10 22:22N 34°25' W 119°50'719.0
2017-Oct-10 22:00N 34°24' W 119°42'1014.9
2017-Oct-10 21:21N 34°16' W 119°46'1026.0
2017-Oct-10 20:58N 34°24' W 119°51'18245.7
2017-Oct-10 20:54N 34°06' W 119°51'1944.9
2017-Oct-10 20:29N 34°25' W 119°50'212746.1
2017-Oct-10 20:28N 34°04' W 119°52'1938.3
2017-Oct-10 19:58N 34°23' W 119°54'322.4
2017-Oct-10 19:50N 34°24' W 119°51'2075.2
2017-Oct-10 19:34N 34°04' W 119°52'0 0.0
2017-Oct-10 19:28N 34°04' W 119°52'223965.1
2017-Oct-10 19:28N 34°25' W 119°42'1119180.3
2017-Oct-10 19:28N 34°23' W 119°54'0 0.0
2017-Oct-10 19:00N 34°23' W 119°54'19411.7
2017-Oct-10 18:58N 34°04' W 119°52'23202.8
2017-Oct-10 18:51N 34°24' W 119°39'0 1.0
2017-Oct-10 18:28N 34°25' W 119°39'2 3.5
2017-Oct-10 18:00N 34°24' W 119°41'11115.4
2017-Oct-10 17:55N 34°23' W 119°54'1971.7
2017-Oct-10 17:39N 34°04' W 119°53'0 0.0
2017-Oct-10 17:28N 34°04' W 119°53'20110.3
2017-Oct-10 17:18N 34°24' W 119°50'4306.2
2017-Oct-10 17:17N 34°23' W 119°54'1968.0
2017-Oct-10 17:00N 34°04' W 119°52'20226.0
2017-Oct-10 16:55N 34°24' W 119°50'490.7
2017-Oct-10 16:52N 34°23' W 119°54'411.4
2017-Oct-10 16:30N 34°25' W 119°50'212283.9
2017-Oct-10 16:29N 34°04' W 119°50'20200.4
2017-Oct-10 16:23N 34°23' W 119°54'2253.2
2017-Oct-10 15:58N 34°03' W 119°43'2226285.4
2017-Oct-10 15:58N 34°24' W 119°49'413.4
2017-Oct-10 15:42N 34°23' W 119°54'24121.1
2017-Oct-10 15:30N 34°02' W 119°42'23632.8
2017-Oct-10 15:28N 34°24' W 119°50'1 2.8
2017-Oct-10 15:16N 34°25' W 119°50'1976.0
2017-Oct-10 15:00N 34°07' W 119°41'19552.5
2017-Oct-10 14:58N 34°25' W 119°50'7 6.9
2017-Oct-10 13:58N 34°24' W 119°42'0 1.8
2017-Oct-10 13:53N 34°24' W 119°42'  
Track history (hours):
 
Tides and Currents Weather Stations Pressure Air Temp Water Temp Dewpoint Dewpoint Depression Visibility Wind Speed Wind Dir Waves Ship Positions

Callsign WAM8729 (name unknown)

Owner: REGENTS OF THE UNIVERSITY OF CALIFORNIA, OAKLAND, CA. More information available from US FCC via Universal Licensing System and Coast Guard Vessel Documentation Center.

Last reported at 2017-Oct-19 21:00 UTC. Time now 2017-Oct-22 17:48 UTC.
Position N 34°25' W 119°50'.

Length 7 m.

Type: Diving. MMSI: 338140283.

Date/timePositionNaut miles runAvg speedWind from/ knotsBaromVisibWave heightAir tempDewpointWater temp
2017-Oct-19 21:00N 34°25' W 119°50'1 2.4
2017-Oct-19 20:31N 34°24' W 119°51'1 0.8
2017-Oct-19 19:10N 34°24' W 119°52'0 0.0
2017-Oct-19 18:59N 34°24' W 119°52'0 0.0
2017-Oct-19 18:23N 34°24' W 119°52'0 0.1
2017-Oct-19 17:00N 34°24' W 119°52'0 0.0
2017-Oct-19 16:19N 34°24' W 119°52'0 0.0
2017-Oct-19 15:55N 34°24' W 119°52'0 0.0
2017-Oct-19 15:30N 34°24' W 119°52'2 4.0
2017-Oct-19 14:59N 34°25' W 119°50'1 0.0
2017-Oct-18 22:00N 34°24' W 119°51'0 0.1
2017-Oct-18 21:30N 34°24' W 119°51'0 0.4
2017-Oct-18 20:41N 34°25' W 119°51'1 2.2
2017-Oct-18 20:22N 34°25' W 119°50'0 0.1
2017-Oct-18 19:58N 34°25' W 119°50'0 0.3
2017-Oct-18 19:30N 34°25' W 119°50'2 3.7
2017-Oct-18 18:59N 34°24' W 119°52'1 1.8
2017-Oct-18 18:29N 34°24' W 119°53'0 0.0
2017-Oct-18 17:50N 34°24' W 119°53'2 5.3
2017-Oct-18 17:30N 34°25' W 119°55'2 2.3
2017-Oct-18 16:42N 34°25' W 119°57'0 0.0
2017-Oct-18 16:30N 34°25' W 119°57'1 1.7
2017-Oct-18 15:58N 34°25' W 119°56'5 9.6
2017-Oct-18 15:25N 34°25' W 119°50'1 2.1
2017-Oct-18 15:00N 34°24' W 119°51'0 0.0
2017-Oct-16 23:49N 34°24' W 119°51'0 0.0
2017-Oct-16 23:30N 34°24' W 119°51'6 7.7
2017-Oct-16 22:43N 34°19' W 119°52'823.4
2017-Oct-16 22:24N 34°11' W 119°55'1023.3
2017-Oct-16 21:57N 34°01' W 119°58'5 0.8
2017-Oct-16 15:58N 33°56' W 119°58'1524.3
2017-Oct-16 15:22N 34°11' W 119°54'923.5
2017-Oct-16 14:58N 34°20' W 119°51'5 8.5
2017-Oct-16 14:21N 34°25' W 119°50'  
2017-Oct-13 22:23N 34°26' W 119°44'3 7.5
2017-Oct-13 22:00N 34°24' W 119°41'2 3.9
2017-Oct-13 21:22N 34°24' W 119°44'0 0.0
2017-Oct-13 20:37N 34°24' W 119°44'0 0.0
2017-Oct-13 20:28N 34°24' W 119°44'0 0.0
2017-Oct-13 19:59N 34°24' W 119°44'0 0.0
2017-Oct-13 18:37N 34°24' W 119°44'0 0.0
2017-Oct-13 18:29N 34°24' W 119°44'0 0.1
2017-Oct-13 17:52N 34°24' W 119°44'0 0.0
2017-Oct-13 17:01N 34°24' W 119°44'0 0.0
2017-Oct-13 16:58N 34°24' W 119°44'2 0.1
2017-Oct-12 19:51N 34°25' W 119°42'2 3.6
2017-Oct-12 19:12N 34°24' W 119°40'413.3
2017-Oct-12 18:53N 34°20' W 119°37'0 0.5
2017-Oct-12 18:25N 34°20' W 119°37'0 0.1
2017-Oct-12 17:56N 34°20' W 119°37'0 0.1
2017-Oct-12 17:23N 34°20' W 119°37'0 0.1
2017-Oct-12 16:55N 34°20' W 119°37'0 0.1
2017-Oct-12 16:29N 34°20' W 119°37'0 0.2
2017-Oct-12 15:39N 34°20' W 119°38'0 0.5
2017-Oct-12 15:27N 34°20' W 119°37'1116.8
2017-Oct-12 14:49N 34°26' W 119°48'3 1.0
2017-Oct-12 11:42N 34°24' W 119°51'0 0.0
2017-Oct-12 08:03N 34°24' W 119°51'0 0.0
2017-Oct-12 07:48N 34°24' W 119°51'0 0.0
2017-Oct-12 07:30N 34°24' W 119°51'0 0.0
2017-Oct-12 07:00N 34°24' W 119°51'0 0.0
2017-Oct-12 06:30N 34°24' W 119°51'0 0.0
2017-Oct-12 05:48N 34°24' W 119°51'0 0.0
2017-Oct-12 05:30N 34°24' W 119°51'0 0.0
2017-Oct-12 04:54N 34°24' W 119°51'0 0.0
2017-Oct-12 03:00N 34°24' W 119°51'0 0.0
2017-Oct-12 01:21N 34°24' W 119°51'0 0.0
2017-Oct-11 21:25N 34°24' W 119°51'0 0.7
2017-Oct-11 20:50N 34°24' W 119°51'1 2.5
2017-Oct-11 20:28N 34°24' W 119°52'0 0.3
2017-Oct-11 20:00N 34°24' W 119°52'0 0.1
2017-Oct-11 19:28N 34°24' W 119°52'0 0.3
2017-Oct-11 18:59N 34°24' W 119°52'9 8.6
2017-Oct-11 17:56N 34°24' W 119°41'817.0
2017-Oct-11 17:29N 34°18' W 119°47'757.4
2017-Oct-11 17:22N 34°24' W 119°52'0 0.1
2017-Oct-11 17:00N 34°24' W 119°52'758.3
2017-Oct-11 16:52N 34°18' W 119°47'7 0.4
2017-Oct-10 22:22N 34°25' W 119°50'719.0
2017-Oct-10 22:00N 34°24' W 119°42'1014.9
2017-Oct-10 21:21N 34°16' W 119°46'1026.0
2017-Oct-10 20:58N 34°24' W 119°51'18245.7
2017-Oct-10 20:54N 34°06' W 119°51'1944.9
2017-Oct-10 20:29N 34°25' W 119°50'212746.1
2017-Oct-10 20:28N 34°04' W 119°52'1938.3
2017-Oct-10 19:58N 34°23' W 119°54'322.4
2017-Oct-10 19:50N 34°24' W 119°51'2075.2
2017-Oct-10 19:34N 34°04' W 119°52'0 0.0
2017-Oct-10 19:28N 34°04' W 119°52'223965.1
2017-Oct-10 19:28N 34°25' W 119°42'1119180.3
2017-Oct-10 19:28N 34°23' W 119°54'0 0.0
2017-Oct-10 19:00N 34°23' W 119°54'19411.7
2017-Oct-10 18:58N 34°04' W 119°52'23202.8
2017-Oct-10 18:51N 34°24' W 119°39'0 1.0
2017-Oct-10 18:28N 34°25' W 119°39'2 3.5
2017-Oct-10 18:00N 34°24' W 119°41'11115.4
2017-Oct-10 17:55N 34°23' W 119°54'1971.7
2017-Oct-10 17:39N 34°04' W 119°53'0 0.0
2017-Oct-10 17:28N 34°04' W 119°53'20110.3
2017-Oct-10 17:18N 34°24' W 119°50'4306.2
2017-Oct-10 17:17N 34°23' W 119°54'1968.0
2017-Oct-10 17:00N 34°04' W 119°52'20226.0
2017-Oct-10 16:55N 34°24' W 119°50'490.7
2017-Oct-10 16:52N 34°23' W 119°54'411.4
2017-Oct-10 16:30N 34°25' W 119°50'212283.9
2017-Oct-10 16:29N 34°04' W 119°50'20200.4
2017-Oct-10 16:23N 34°23' W 119°54'2253.2
2017-Oct-10 15:58N 34°03' W 119°43'2226285.4
2017-Oct-10 15:58N 34°24' W 119°49'413.4
2017-Oct-10 15:42N 34°23' W 119°54'24121.1
2017-Oct-10 15:30N 34°02' W 119°42'23632.8
2017-Oct-10 15:28N 34°24' W 119°50'1 2.8
2017-Oct-10 15:16N 34°25' W 119°50'1976.0
2017-Oct-10 15:00N 34°07' W 119°41'19552.5
2017-Oct-10 14:58N 34°25' W 119°50'7 6.9
2017-Oct-10 13:58N 34°24' W 119°42'0 1.8
2017-Oct-10 13:53N 34°24' W 119°42'  

Dump ship's entire track history